Flight Track Log - Related Links

Times and Time Zones

All times are in EDT time to prevent confusion due to time zone crossing. See the UPS1132 flight status page for this flight to view local times or setup timezone preferences in your user account.

Time Position Orientation Groundspeed Altitude Reporting Facility
EDT Latitude Longitude Course Direction KTS MPH feet Rate Location/Type
Thu 06:08:43 AM 42.9460 -78.7220 43° Northeast 159 183 1,500  Level FlightAware ADS-B
Thu 06:09:08 AM 42.9610 -78.7040 41° Northeast 188 216 2,400 1,855 Climbing FlightAware ADS-B
Thu 06:09:38 AM 42.9850 -78.6750 41° Northeast 240 276 3,200 2,073 Climbing FlightAware ADS-B
Thu 06:10:03 AM 43.0020 -78.6440 53° Northeast 254 292 4,300 2,945 Climbing FlightAware ADS-B
Thu 06:10:33 AM 43.0090 -78.5940 79° East 269 310 5,900 2,600 Climbing FlightAware ADS-B
Thu 06:11:03 AM 43.0120 -78.5390 86° East 309 356 6,900 2,509 Climbing FlightAware ADS-B
Thu 06:11:28 AM 43.0140 -78.4910 87° East 317 365 8,200 3,382 Climbing FlightAware ADS-B
Thu 06:11:58 AM 43.0170 -78.4290 86° East 323 372 10,000 2,571 Climbing FlightAware ADS-B
Thu 06:12:38 AM 43.0210 -78.3430 86° East 364 419 11,200 2,047 Climbing FlightAware ADS-B
Thu 06:13:23 AM 43.0260 -78.2330 86° East 394 453 12,900 2,682 Climbing FlightAware ADS-B
Thu 06:14:03 AM 43.0300 -78.1320 87° East 398 458 15,000 2,775 Climbing FlightAware ADS-B
Thu 06:14:43 AM 43.0360 -78.0300 85° East 399 459 16,600 1,271 Climbing FlightAware ADS-B
Thu 06:15:28 AM 43.0410 -77.9170 86° East 405 466 16,800 133 Climbing FlightAware ADS-B
Thu 06:16:13 AM 43.0460 -77.7980 87° East 407 468 16,800  Level FlightAware ADS-B
Thu 06:16:53 AM 43.0510 -77.6930 86° East 417 480 16,800  Level FlightAware ADS-B
Thu 06:17:33 AM 43.0550 -77.5870 87° East 416 479 16,800  Level FlightAware ADS-B
Thu 06:18:13 AM 43.0590 -77.4870 87° East 416 479 16,800 -776 Level FlightAware ADS-B
Thu 06:18:58 AM 43.0640 -77.3660 87° East 400 460 15,700 -1,624 Descending FlightAware ADS-B
Thu 06:19:38 AM 43.0690 -77.2650 86° East 391 450 14,500 -1,835 Descending FlightAware ADS-B
Thu 06:20:23 AM 43.0730 -77.1540 87° East 379 436 13,100 -1,765 Descending FlightAware ADS-B
Thu 06:21:03 AM 43.0760 -77.0630 87° East 370 426 12,000 -1,650 Descending FlightAware ADS-B
Thu 06:21:43 AM 43.0790 -76.9680 87° East 362 417 10,900 -847 Descending FlightAware ADS-B
Thu 06:22:28 AM 43.0810 -76.8750 88° East 331 381 10,800 -71 Descending FlightAware ADS-B
Thu 06:23:08 AM 43.0840 -76.7880 87° East 326 375 10,800 -847 Level FlightAware ADS-B
Thu 06:23:53 AM 43.0880 -76.6970 87° East 322 371 9,600 -988 Descending FlightAware ADS-B
Thu 06:24:33 AM 43.0920 -76.6220 86° East 323 372 9,400 -200 Descending FlightAware ADS-B
Thu 06:24:53 AM 43.0930 -76.5870 88° East 323 372 9,400 -4,950 Level FlightAware ADS-B
Thu 06:25:13 AM 43.0940 -76.5370 88° East 302 348 6,100 -4,080 Descending FlightAware ADS-B
Thu 06:25:43 AM 43.0960 -76.4840 87° East 302 348 6,000 -2,118 Descending FlightAware ADS-B
Thu 06:26:04 AM 43.0972 -76.4414 87° East 295 339 4,300 -2,415 Descending Boston Center
Thu 06:27:05 AM 43.1006 -76.3392 87° East 262 302 2,700 -1,100 Descending Boston Center
Thu 06:28:04 AM 43.1033 -76.2597 87° East 194 223 2,100 -545 Descending Boston Center
Thu 06:29:06 AM 43.1050 -76.2114 87° East 103 119 1,600 -545 Descending Boston Center
Thu 06:30:05 AM 43.1064 -76.1689 87° East 99 114 1,000 -610 Descending Boston Center

Login

Don't have an account? Register now (free) for customized features, flight alerts, and more!